createdAt,value
2019-01-02T00:02:02.403Z,5.57
2019-01-02T00:04:33.491Z,5.32
2019-01-02T00:07:04.375Z,5.36
2019-01-02T00:09:35.203Z,5.28
2019-01-02T00:12:06.042Z,5.22
2019-01-02T00:14:37.493Z,5.23
2019-01-02T00:17:09.162Z,5.16
2019-01-02T00:19:40.299Z,5.18
2019-01-02T00:22:11.956Z,5.22
2019-01-02T00:24:43.590Z,5.21
2019-01-02T00:27:14.979Z,5.18
2019-01-02T00:29:46.854Z,5.20
2019-01-02T00:32:17.944Z,5.17
2019-01-02T00:34:48.791Z,5.16
2019-01-02T00:37:20.190Z,5.21
2019-01-02T00:39:51.283Z,5.20
2019-01-02T00:42:22.660Z,5.29
2019-01-02T00:44:54.025Z,5.23
2019-01-02T00:47:25.829Z,5.22
2019-01-02T00:49:57.571Z,5.18
2019-01-02T00:52:28.928Z,5.18
2019-01-02T00:55:00.569Z,5.09
2019-01-02T00:57:32.260Z,5.03
2019-01-02T01:00:03.397Z,5.07
2019-01-02T01:02:35.423Z,5.07
2019-01-02T01:05:06.552Z,5.05
2019-01-02T01:07:38.030Z,5.08
2019-01-02T01:10:13.359Z,5.05
2019-01-02T01:12:45.379Z,5.04
2019-01-02T01:15:17.060Z,5.03
2019-01-02T01:17:48.412Z,5.01
2019-01-02T01:20:21.404Z,4.94
2019-01-02T01:22:53.053Z,4.97
2019-01-02T01:25:24.416Z,5.11
2019-01-02T01:27:55.793Z,5.01
2019-01-02T01:30:27.441Z,5.04
2019-01-02T01:32:59.112Z,4.93
2019-01-02T01:35:30.510Z,4.93
2019-01-02T01:38:01.884Z,4.89
2019-01-02T01:40:33.556Z,4.90
2019-01-02T01:43:04.671Z,4.93
2019-01-02T01:45:36.673Z,4.94
2019-01-02T01:48:07.513Z,4.89
2019-01-02T01:50:38.889Z,4.97
2019-01-02T01:53:10.701Z,4.98
2019-01-02T01:55:41.874Z,4.94
2019-01-02T01:58:12.992Z,4.95
2019-01-02T02:00:44.543Z,4.93
2019-01-02T02:03:16.223Z,4.92
2019-01-02T02:05:47.579Z,4.94
2019-01-02T02:08:18.935Z,4.86
2019-01-02T02:10:50.293Z,4.86
2019-01-02T02:13:21.932Z,4.84
2019-01-02T02:15:53.575Z,4.77
2019-01-02T02:18:25.257Z,4.72
2019-01-02T02:20:57.270Z,4.52
2019-01-02T02:23:28.074Z,4.41
2019-01-02T02:25:59.465Z,4.39
2019-01-02T02:28:30.659Z,4.39
2019-01-02T02:31:02.023Z,4.32
2019-01-02T02:33:33.684Z,4.34
2019-01-02T02:36:05.323Z,4.18
2019-01-02T02:38:37.274Z,4.21
2019-01-02T02:41:09.187Z,4.14
2019-01-02T02:43:41.206Z,4.07
2019-01-02T02:46:12.588Z,4.07
2019-01-02T02:48:43.948Z,4.01
2019-01-02T02:51:15.606Z,4.08
2019-01-02T02:53:47.012Z,3.89
2019-01-02T02:56:18.384Z,3.95
2019-01-02T02:58:49.746Z,4.03
2019-01-02T03:01:21.240Z,3.95
2019-01-02T03:03:53.155Z,4.04
2019-01-02T03:06:27.002Z,3.96
2019-01-02T03:08:58.070Z,3.97
2019-01-02T03:11:29.458Z,4.01
2019-01-02T03:14:01.098Z,4.07
2019-01-02T03:16:32.726Z,4.07
2019-01-02T03:19:04.118Z,4.10
2019-01-02T03:21:35.478Z,4.08
2019-01-02T03:24:07.110Z,4.14
2019-01-02T03:26:38.239Z,4.17
2019-01-02T03:29:09.053Z,4.14
2019-01-02T03:31:40.861Z,4.13
2019-01-02T03:34:12.855Z,4.15
2019-01-02T03:36:43.940Z,4.03
2019-01-02T03:39:15.584Z,4.01
2019-01-02T03:41:46.732Z,4.06
2019-01-02T03:44:18.105Z,4.01
2019-01-02T03:46:49.551Z,3.89
2019-01-02T03:49:20.924Z,4.00
2019-01-02T03:51:52.660Z,3.88
2019-01-02T03:54:23.749Z,3.91
2019-01-02T03:56:55.152Z,3.93
2019-01-02T03:59:26.779Z,3.79
2019-01-02T04:01:58.131Z,3.73
2019-01-02T04:04:29.516Z,3.68
2019-01-02T04:07:00.890Z,3.57
2019-01-02T04:09:32.251Z,3.46
2019-01-02T04:12:03.360Z,3.48
2019-01-02T04:14:34.226Z,3.50
2019-01-02T04:17:05.576Z,3.54
2019-01-02T04:19:37.498Z,3.55
2019-01-02T04:22:08.580Z,3.56
2019-01-02T04:24:40.272Z,3.50
2019-01-02T04:27:11.726Z,3.45
2019-01-02T04:29:43.092Z,3.39
2019-01-02T04:32:14.443Z,3.36
2019-01-02T04:34:45.559Z,3.34
2019-01-02T04:37:16.645Z,3.42
2019-01-02T04:39:48.303Z,3.46
2019-01-02T04:42:20.005Z,3.42
2019-01-02T04:44:51.102Z,3.37
2019-01-02T04:47:22.736Z,3.42
2019-01-02T04:49:54.325Z,3.48
2019-01-02T04:52:25.717Z,3.56
2019-01-02T04:54:57.122Z,3.44
2019-01-02T04:57:28.512Z,3.42
2019-01-02T05:00:00.254Z,3.45
2019-01-02T05:02:31.031Z,3.42
2019-01-02T05:05:02.421Z,3.48
2019-01-02T05:07:33.595Z,3.43
2019-01-02T05:10:05.512Z,3.58
2019-01-02T05:12:36.970Z,3.50
2019-01-02T05:15:08.634Z,3.51
2019-01-02T05:17:39.710Z,3.45
2019-01-02T05:20:14.190Z,3.50
2019-01-02T05:22:45.059Z,3.47
2019-01-02T05:25:16.713Z,3.49
2019-01-02T05:27:48.346Z,3.43
2019-01-02T05:30:20.300Z,3.45
2019-01-02T05:32:51.431Z,3.49
2019-01-02T05:35:22.791Z,3.64
2019-01-02T05:37:54.437Z,3.53
2019-01-02T05:40:27.091Z,3.58
2019-01-02T05:42:58.475Z,3.59
2019-01-02T05:45:29.591Z,3.52
2019-01-02T05:48:01.310Z,3.50
2019-01-02T05:50:32.675Z,3.43
2019-01-02T05:53:03.783Z,3.42
2019-01-02T05:55:35.196Z,3.56
2019-01-02T05:58:06.906Z,3.47
2019-01-02T06:00:39.939Z,3.47
2019-01-02T06:03:11.382Z,3.49
2019-01-02T06:05:42.503Z,3.58
2019-01-02T06:08:13.616Z,3.62
2019-01-02T06:10:45.354Z,3.61
2019-01-02T06:13:16.991Z,3.57
2019-01-02T06:15:48.643Z,3.65
2019-01-02T06:18:20.320Z,3.64
2019-01-02T06:20:51.662Z,3.68
2019-01-02T06:23:23.051Z,3.42
2019-01-02T06:25:54.709Z,3.44
2019-01-02T06:28:26.332Z,3.33
2019-01-02T06:30:57.701Z,3.36
2019-01-02T06:33:29.460Z,3.22
2019-01-02T06:36:00.643Z,3.14
2019-01-02T06:38:32.010Z,3.00
2019-01-02T06:41:03.393Z,2.95
2019-01-02T06:43:34.478Z,3.03
2019-01-02T06:46:05.446Z,2.98
2019-01-02T06:48:36.636Z,2.88
2019-01-02T06:51:08.000Z,2.90
2019-01-02T06:53:39.668Z,3.05
2019-01-02T06:56:11.012Z,3.21
2019-01-02T06:58:42.701Z,3.12
2019-01-02T07:01:13.786Z,3.15
2019-01-02T07:03:45.147Z,3.07
2019-01-02T07:06:16.516Z,3.05
2019-01-02T07:08:48.224Z,3.12
2019-01-02T07:11:19.334Z,3.15
2019-01-02T07:13:50.974Z,3.20
2019-01-02T07:16:22.333Z,3.19
2019-01-02T07:18:53.715Z,3.28
2019-01-02T07:21:25.343Z,3.28
2019-01-02T07:23:57.031Z,3.30
2019-01-02T07:26:28.689Z,3.30
2019-01-02T07:29:00.036Z,3.40
2019-01-02T07:31:31.146Z,3.41
2019-01-02T07:34:33.619Z,3.50
2019-01-02T07:38:10.868Z,3.46
2019-01-02T07:41:40.283Z,3.49
2019-01-02T07:45:12.948Z,3.50
2019-01-02T07:48:35.385Z,3.55
2019-01-02T07:52:11.102Z,3.63
2019-01-02T07:55:34.315Z,3.64
2019-01-02T07:58:42.333Z,3.58
2019-01-02T08:02:31.339Z,3.56
2019-01-02T08:05:53.549Z,3.57
2019-01-02T08:08:53.154Z,3.73
2019-01-02T08:12:18.393Z,3.65
2019-01-02T08:16:09.604Z,3.75
2019-01-02T08:19:34.926Z,3.75
2019-01-02T08:23:20.761Z,3.82
2019-01-02T08:26:58.645Z,3.83
2019-01-02T08:30:23.266Z,3.83
2019-01-02T08:33:49.714Z,3.79
2019-01-02T08:37:09.297Z,3.97
2019-01-02T08:40:40.569Z,4.01
2019-01-02T08:43:50.780Z,3.84
2019-01-02T08:47:15.630Z,4.01
2019-01-02T08:50:46.781Z,4.00
2019-01-02T08:54:10.335Z,4.05
2019-01-02T08:57:48.783Z,4.03
2019-01-02T09:01:21.583Z,4.10
2019-01-02T09:04:57.017Z,4.11
2019-01-02T09:08:34.686Z,4.09
2019-01-02T09:11:53.387Z,3.89
2019-01-02T09:15:34.468Z,3.97
2019-01-02T09:19:12.641Z,4.00
2019-01-02T09:22:48.612Z,3.94
2019-01-02T09:26:03.488Z,4.04
2019-01-02T09:29:19.005Z,3.95
2019-01-02T09:32:43.418Z,4.00
2019-01-02T09:36:03.534Z,3.94
2019-01-02T09:39:51.119Z,3.90
2019-01-02T09:43:38.686Z,4.01
2019-01-02T09:47:11.974Z,4.02
2019-01-02T09:50:35.877Z,3.93
2019-01-02T09:53:58.653Z,4.07
2019-01-02T09:57:39.275Z,4.00
2019-01-02T10:01:11.743Z,3.96
2019-01-02T10:04:45.843Z,3.92
2019-01-02T10:08:02.979Z,4.05
2019-01-02T10:11:16.475Z,4.08
2019-01-02T10:14:55.588Z,4.24
2019-01-02T10:18:26.408Z,4.26
2019-01-02T10:21:47.264Z,4.28
2019-01-02T10:25:16.689Z,4.27
2019-01-02T10:28:35.901Z,4.26
2019-01-02T10:32:04.870Z,4.27
2019-01-02T10:35:38.068Z,4.19
2019-01-02T10:39:07.038Z,4.14
2019-01-02T10:42:37.340Z,4.10
2019-01-02T10:45:44.886Z,4.10
2019-01-02T10:49:25.899Z,4.08
2019-01-02T10:53:06.691Z,4.20
2019-01-02T10:56:23.011Z,4.13
2019-01-02T10:59:55.117Z,4.18
2019-01-02T11:03:32.649Z,4.04
2019-01-02T11:07:04.131Z,4.01
2019-01-02T11:10:26.089Z,4.06
2019-01-02T11:14:11.699Z,4.16
2019-01-02T11:17:37.088Z,4.16
2019-01-02T11:21:31.469Z,4.23
2019-01-02T11:24:53.736Z,4.16
2019-01-02T11:28:32.387Z,4.14
2019-01-02T11:32:02.000Z,4.15
2019-01-02T11:35:04.114Z,4.20
2019-01-02T11:38:44.268Z,4.21
2019-01-02T11:42:36.289Z,4.18
2019-01-02T11:45:14.004Z,4.36
2019-01-02T11:47:45.485Z,4.39
2019-01-02T11:50:17.675Z,4.53
2019-01-02T11:52:49.054Z,4.48
2019-01-02T11:55:20.452Z,4.60
2019-01-02T11:57:51.551Z,4.58
2019-01-02T12:00:22.912Z,4.80
2019-01-02T12:02:54.574Z,4.85
2019-01-02T12:05:25.760Z,4.83
2019-01-02T12:07:56.851Z,4.69
2019-01-02T12:10:27.711Z,4.76
2019-01-02T12:12:59.079Z,4.69
2019-01-02T12:15:29.916Z,4.59
2019-01-02T12:18:01.025Z,4.55
2019-01-02T12:20:32.394Z,4.60
2019-01-02T12:23:03.770Z,4.56
2019-01-02T12:25:34.880Z,4.44
2019-01-02T12:28:06.219Z,4.49
2019-01-02T12:30:37.854Z,4.56
2019-01-02T12:33:09.562Z,4.49
2019-01-02T12:35:40.662Z,4.54
2019-01-02T12:38:12.296Z,4.46
2019-01-02T12:40:43.422Z,4.42
2019-01-02T12:43:14.255Z,4.46
2019-01-02T12:45:45.911Z,4.54
2019-01-02T12:48:17.603Z,4.37
2019-01-02T12:50:48.962Z,4.08
2019-01-02T12:53:20.328Z,3.87
2019-01-02T12:55:51.996Z,3.92
2019-01-02T12:58:23.090Z,3.95
2019-01-02T13:01:16.146Z,3.97
2019-01-02T13:04:49.533Z,4.10
2019-01-02T13:08:21.753Z,4.50
2019-01-02T13:11:50.833Z,4.85
2019-01-02T13:15:20.831Z,4.70
2019-01-02T13:18:52.447Z,4.69
2019-01-02T13:22:31.957Z,4.62
2019-01-02T13:26:14.524Z,4.56
2019-01-02T13:29:08.484Z,4.84
2019-01-02T13:32:40.374Z,4.78
2019-01-02T13:36:13.822Z,4.90
2019-01-02T13:39:03.147Z,5.63
2019-01-02T13:42:23.114Z,5.37
2019-01-02T13:45:30.353Z,5.21
2019-01-02T13:49:08.621Z,5.47
2019-01-02T13:51:45.927Z,5.72
2019-01-02T13:54:17.032Z,5.76
2019-01-02T13:56:47.860Z,5.80
2019-01-02T13:59:19.227Z,5.81
2019-01-02T14:01:51.779Z,5.61
2019-01-02T14:04:23.431Z,5.59
2019-01-02T14:06:54.265Z,5.73
2019-01-02T14:09:25.747Z,6.02
2019-01-02T14:11:57.104Z,5.70
2019-01-02T14:14:28.731Z,5.67
2019-01-02T14:16:59.851Z,5.66
2019-01-02T14:19:31.523Z,5.90
2019-01-02T14:22:02.891Z,5.77
2019-01-02T14:24:34.543Z,5.57
2019-01-02T14:27:06.209Z,5.59
2019-01-02T14:29:37.843Z,5.46
2019-01-02T14:32:08.960Z,5.35
2019-01-02T14:34:40.355Z,5.23
2019-01-02T14:37:11.762Z,5.08
2019-01-02T14:39:43.152Z,5.18
2019-01-02T14:42:14.537Z,5.06
2019-01-02T14:44:45.629Z,4.79
2019-01-02T14:47:17.506Z,4.85
2019-01-02T14:49:48.870Z,4.69
2019-01-02T14:52:19.959Z,4.66
2019-01-02T14:54:51.657Z,4.57
2019-01-02T14:57:22.774Z,4.54
2019-01-02T14:59:53.606Z,4.46
2019-01-02T15:02:25.293Z,4.55
2019-01-02T15:04:57.017Z,4.29
2019-01-02T15:07:28.130Z,4.15
2019-01-02T15:09:59.406Z,3.96
2019-01-02T15:12:30.785Z,3.80
2019-01-02T15:15:02.133Z,3.90
2019-01-02T15:17:33.515Z,3.90
2019-01-02T15:20:04.625Z,3.96
2019-01-02T15:22:36.008Z,3.98
2019-01-02T15:25:07.929Z,4.08
2019-01-02T15:27:39.293Z,4.11
2019-01-02T15:30:13.499Z,3.95
2019-01-02T15:32:44.925Z,4.08
2019-01-02T15:35:16.583Z,3.96
2019-01-02T15:37:48.076Z,3.97
2019-01-02T15:40:19.589Z,3.96
2019-01-02T15:42:50.564Z,3.89
2019-01-02T15:45:21.961Z,3.92
2019-01-02T15:47:53.643Z,3.94
2019-01-02T15:50:25.407Z,3.82
2019-01-02T15:52:56.827Z,3.83
2019-01-02T15:55:27.927Z,3.85
2019-01-02T15:57:59.077Z,3.79
2019-01-02T16:00:30.199Z,3.84
2019-01-02T16:03:01.290Z,3.67
2019-01-02T16:05:32.955Z,3.77
2019-01-02T16:08:04.329Z,3.70
2019-01-02T16:10:35.450Z,3.68
2019-01-02T16:13:07.141Z,3.66
2019-01-02T16:15:38.824Z,3.59
2019-01-02T16:18:09.911Z,3.67
2019-01-02T16:20:41.053Z,3.75
2019-01-02T16:23:12.715Z,3.63
2019-01-02T16:25:44.101Z,3.77
2019-01-02T16:28:15.283Z,3.75
2019-01-02T16:30:46.455Z,3.66
2019-01-02T16:33:17.825Z,3.75
2019-01-02T16:35:49.644Z,3.74
2019-01-02T16:38:21.133Z,3.70
2019-01-02T16:40:52.266Z,3.71
2019-01-02T16:43:23.716Z,3.68
2019-01-02T16:45:55.079Z,3.66
2019-01-02T16:48:25.976Z,3.62
2019-01-02T16:50:57.367Z,3.44
2019-01-02T16:53:28.803Z,3.28
2019-01-02T16:56:00.237Z,3.21
2019-01-02T16:58:31.980Z,3.16
2019-01-02T17:01:03.542Z,3.14
2019-01-02T17:03:34.912Z,3.02
2019-01-02T17:06:05.807Z,3.06
2019-01-02T17:08:36.999Z,2.93
2019-01-02T17:11:07.816Z,2.84
2019-01-02T17:13:40.104Z,2.78
2019-01-02T17:16:10.980Z,2.71
2019-01-02T17:18:42.785Z,2.67
2019-01-02T17:21:14.444Z,2.68
2019-01-02T17:23:45.546Z,2.62
2019-01-02T17:26:16.923Z,2.68
2019-01-02T17:28:48.103Z,2.81
2019-01-02T17:31:19.448Z,2.68
2019-01-02T17:33:50.635Z,2.76
2019-01-02T17:36:22.373Z,2.77
2019-01-02T17:38:54.044Z,2.77
2019-01-02T17:41:25.741Z,2.65
2019-01-02T17:43:56.860Z,2.55
2019-01-02T17:46:28.486Z,2.45
2019-01-02T17:48:59.662Z,2.39
2019-01-02T17:51:32.067Z,2.31
2019-01-02T17:54:03.497Z,2.27
2019-01-02T17:56:35.465Z,2.25
2019-01-02T17:59:07.098Z,2.20
2019-01-02T18:01:43.246Z,2.15
2019-01-02T18:04:15.635Z,2.21
2019-01-02T18:06:47.432Z,2.19
2019-01-02T18:09:19.082Z,2.29
2019-01-02T18:11:51.502Z,2.37
2019-01-02T18:14:23.389Z,2.23
2019-01-02T18:16:55.090Z,2.29
2019-01-02T18:19:26.935Z,2.23
2019-01-02T18:21:58.622Z,2.16
2019-01-02T18:24:31.603Z,2.05
2019-01-02T18:27:03.327Z,2.08
2019-01-02T18:29:34.429Z,2.35
2019-01-02T18:32:05.827Z,2.40
2019-01-02T18:34:36.946Z,2.37
2019-01-02T18:37:08.066Z,2.27
2019-01-02T18:39:39.706Z,2.11
2019-01-02T18:42:10.836Z,2.04
2019-01-02T18:44:42.310Z,1.92
2019-01-02T18:47:13.704Z,1.89
2019-01-02T18:49:45.392Z,1.81
2019-01-02T18:52:16.487Z,1.69
2019-01-02T18:54:47.622Z,1.53
2019-01-02T18:57:19.082Z,1.54
2019-01-02T18:59:50.737Z,1.84
2019-01-02T19:02:22.109Z,1.92
2019-01-02T19:04:53.262Z,1.96
2019-01-02T19:07:24.938Z,1.81
2019-01-02T19:09:56.112Z,1.64
2019-01-02T19:12:27.261Z,1.42
2019-01-02T19:14:58.726Z,1.21
2019-01-02T19:17:30.379Z,1.02
2019-01-02T19:20:01.538Z,0.94
2019-01-02T19:22:32.426Z,1.08
2019-01-02T19:25:05.690Z,1.13
2019-01-02T19:27:36.785Z,1.12
2019-01-02T19:30:08.715Z,1.03
2019-01-02T19:32:40.128Z,0.98
2019-01-02T19:35:11.509Z,0.93
2019-01-02T19:37:42.888Z,1.01
2019-01-02T19:40:14.540Z,1.04
2019-01-02T19:42:45.927Z,1.16
2019-01-02T19:45:17.141Z,1.01
2019-01-02T19:47:48.556Z,0.74
2019-01-02T19:50:19.939Z,0.52
2019-01-02T19:52:51.424Z,0.38
2019-01-02T19:55:22.860Z,0.28
2019-01-02T19:57:54.523Z,0.28
2019-01-02T20:00:25.950Z,0.20
2019-01-02T20:02:57.325Z,0.01
2019-01-02T20:05:28.166Z,-0.11
2019-01-02T20:07:59.838Z,-0.16
2019-01-02T20:10:31.516Z,-0.13
2019-01-02T20:13:03.139Z,0.01
2019-01-02T20:15:34.270Z,-0.18
2019-01-02T20:18:05.699Z,-0.31
2019-01-02T20:20:36.884Z,-0.18
2019-01-02T20:23:08.511Z,0.09
2019-01-02T20:25:39.997Z,-0.12
2019-01-02T20:28:11.651Z,-0.03
2019-01-02T20:30:43.043Z,0.16
2019-01-02T20:33:14.465Z,0.02
2019-01-02T20:35:45.895Z,-0.05
2019-01-02T20:38:16.703Z,0.07
2019-01-02T20:40:48.156Z,0.20
2019-01-02T20:43:19.569Z,0.32
2019-01-02T20:45:51.209Z,0.39
2019-01-02T20:48:22.314Z,0.46
2019-01-02T20:50:54.397Z,0.45
2019-01-02T20:53:26.046Z,0.49
2019-01-02T20:55:57.137Z,0.49
2019-01-02T20:58:28.860Z,0.44
2019-01-02T21:01:00.488Z,0.41
2019-01-02T21:03:32.157Z,0.42
2019-01-02T21:06:03.531Z,0.49
2019-01-02T21:08:34.624Z,0.51
2019-01-02T21:11:06.009Z,0.57
2019-01-02T21:13:37.104Z,0.68
2019-01-02T21:16:07.930Z,0.87
2019-01-02T21:18:39.193Z,0.81
2019-01-02T21:21:10.316Z,0.90
2019-01-02T21:23:42.015Z,0.85
2019-01-02T21:26:13.357Z,0.84
2019-01-02T21:28:44.719Z,0.86
2019-01-02T21:31:16.387Z,0.87
2019-01-02T21:33:47.492Z,0.81
2019-01-02T21:36:18.309Z,0.85
2019-01-02T21:38:49.400Z,0.96
2019-01-02T21:41:20.793Z,0.92
2019-01-02T21:43:52.148Z,1.15
2019-01-02T21:46:23.778Z,1.08
2019-01-02T21:48:55.081Z,1.13
2019-01-02T21:51:26.739Z,1.08
2019-01-02T21:53:58.103Z,1.05
2019-01-02T21:56:28.950Z,1.07
2019-01-02T21:59:00.329Z,0.99
2019-01-02T22:01:31.430Z,1.04
2019-01-02T22:04:02.549Z,1.03
2019-01-02T22:06:33.902Z,0.96
2019-01-02T22:09:06.106Z,0.81
2019-01-02T22:11:39.034Z,0.80
2019-01-02T22:14:10.708Z,0.71
2019-01-02T22:16:42.108Z,0.70
2019-01-02T22:19:13.530Z,0.67
2019-01-02T22:21:44.957Z,0.66
2019-01-02T22:24:16.627Z,0.58
2019-01-02T22:26:48.019Z,0.55
2019-01-02T22:29:19.711Z,0.43
2019-01-02T22:31:51.361Z,0.29
2019-01-02T22:34:22.481Z,0.17
2019-01-02T22:36:53.840Z,0.08
2019-01-02T22:39:25.210Z,0.03
2019-01-02T22:41:56.365Z,-0.13
2019-01-02T22:44:27.756Z,-0.33
2019-01-02T22:46:59.135Z,-0.40
2019-01-02T22:49:30.544Z,-0.39
2019-01-02T22:52:02.203Z,-0.29
2019-01-02T22:54:33.613Z,-0.52
2019-01-02T22:57:05.294Z,-0.76
2019-01-02T22:59:36.420Z,-0.99
2019-01-02T23:02:38.172Z,-1.16
2019-01-02T23:05:33.911Z,-1.38
2019-01-02T23:08:22.447Z,-1.46
2019-01-02T23:11:10.919Z,-1.55
2019-01-02T23:14:09.862Z,-1.66
2019-01-02T23:16:58.585Z,-1.63
2019-01-02T23:19:49.547Z,-1.62
2019-01-02T23:22:42.862Z,-1.56
2019-01-02T23:25:30.507Z,-1.56
2019-01-02T23:28:26.367Z,-1.62
2019-01-02T23:31:14.073Z,-1.64
2019-01-02T23:34:09.937Z,-1.66
2019-01-02T23:37:09.352Z,-1.69
2019-01-02T23:39:53.657Z,-1.71
2019-01-02T23:42:39.567Z,-1.71
2019-01-02T23:45:28.182Z,-1.86
2019-01-02T23:48:19.655Z,-2.02
2019-01-02T23:51:08.657Z,-2.12
2019-01-02T23:53:58.978Z,-2.16
2019-01-02T23:56:47.950Z,-2.26
2019-01-02T23:59:37.711Z,-2.34
